Time;durP1;ratioP1;P1;durP2;ratioP2;P2;SDS_P1;SDS_P2;PMS_P1;PMS_P2;Temp;Humidity;BMP_temperature;BMP_pressure;BME280_temperature;BME280_humidity;BME280_pressure;Samples;Min_cycle;Max_cycle;Signal;HPM_P1;HPM_P2
2022/03/28 00:01:00;;;;;;;7.10;6.50;;;13.20;84.90;;;;;;5051554;28;20286;-66
2022/03/28 00:03:29;;;;;;;6.80;6.20;;;13.20;85.00;;;;;;5039550;28;20224;-67
2022/03/28 00:05:56;;;;;;;6.63;5.90;;;13.10;85.20;;;;;;5051668;28;20694;-67
2022/03/28 00:08:24;;;;;;;7.55;6.75;;;13.10;85.30;;;;;;5054729;28;20228;-66
2022/03/28 00:10:52;;;;;;;7.03;6.32;;;13.10;85.50;;;;;;5055722;28;20224;-67
2022/03/28 00:13:22;;;;;;;6.95;6.10;;;13.10;85.70;;;;;;5055882;28;20220;-66
2022/03/28 00:15:52;;;;;;;8.05;6.82;;;13.10;85.80;;;;;;5055467;28;20234;-66
2022/03/28 00:18:22;;;;;;;8.30;7.25;;;13.00;85.90;;;;;;5055930;28;20232;-66
2022/03/28 00:20:55;;;;;;;7.80;6.70;;;13.00;86.10;;;;;;5055466;28;20224;-66
2022/03/28 00:23:24;;;;;;;7.53;6.25;;;13.00;86.30;;;;;;5055491;28;20307;-67
2022/03/28 00:25:54;;;;;;;8.40;6.88;;;13.00;86.40;;;;;;5054930;28;20252;-67
2022/03/28 00:28:24;;;;;;;11.00;6.20;;;13.00;86.70;;;;;;5055849;28;20236;-67
2022/03/28 00:30:52;;;;;;;8.10;7.40;;;12.90;86.80;;;;;;5055076;28;20233;-67
2022/03/28 00:33:31;;;;;;;8.73;7.75;;;12.90;87.00;;;;;;5055868;28;20679;-66
2022/03/28 00:35:59;;;;;;;6.43;5.72;;;12.90;87.10;;;;;;5055218;28;20235;-67
2022/03/28 00:38:31;;;;;;;7.57;6.78;;;12.80;87.30;;;;;;5055583;28;20706;-66
2022/03/28 00:41:02;;;;;;;7.65;6.82;;;12.80;87.60;;;;;;5054019;28;20232;-66
2022/03/28 00:43:34;;;;;;;7.50;6.28;;;12.80;87.70;;;;;;5055445;28;20224;-65
2022/03/28 00:46:04;;;;;;;6.47;5.78;;;12.80;87.90;;;;;;5042540;28;20228;-66
2022/03/28 00:48:33;;;;;;;8.25;5.97;;;12.80;88.00;;;;;;5055225;28;20217;-67
2022/03/28 00:51:01;;;;;;;11.45;7.47;;;12.80;88.20;;;;;;5054850;28;20303;-67
2022/03/28 00:53:30;;;;;;;7.20;6.60;;;12.80;88.20;;;;;;5055304;28;20670;-66
2022/03/28 00:55:59;;;;;;;7.60;6.47;;;12.80;88.30;;;;;;5040515;28;20283;-67
2022/03/28 00:58:29;;;;;;;8.82;7.10;;;12.80;88.50;;;;;;5051473;28;20240;-66
2022/03/28 01:00:59;;;;;;;8.57;7.00;;;12.80;88.80;;;;;;5054776;28;20251;-67
2022/03/28 01:03:29;;;;;;;8.88;6.70;;;12.70;88.90;;;;;;5045774;28;20221;-66
2022/03/28 01:05:58;;;;;;;8.30;5.70;;;12.70;89.10;;;;;;5054617;28;20233;-66
2022/03/28 01:08:27;;;;;;;9.15;6.50;;;12.60;89.20;;;;;;5054962;28;20225;-66
2022/03/28 01:11:00;;;;;;;7.68;6.47;;;12.70;89.60;;;;;;5054584;28;20570;-66
2022/03/28 01:13:28;;;;;;;7.18;6.15;;;12.60;89.70;;;;;;5041510;28;20239;-66
2022/03/28 01:15:59;;;;;;;7.38;6.22;;;12.60;90.00;;;;;;5053145;28;20809;-67
2022/03/28 01:18:27;;;;;;;9.52;7.32;;;12.60;90.10;;;;;;5054379;28;20232;-67
2022/03/28 01:20:57;;;;;;;10.05;7.70;;;12.60;90.50;;;;;;5052822;28;20323;-65
2022/03/28 01:23:26;;;;;;;11.07;7.53;;;12.60;90.30;;;;;;5054464;28;20238;-66
2022/03/28 01:25:57;;;;;;;7.50;6.72;;;12.50;90.40;;;;;;5054272;28;20290;-66
2022/03/28 01:28:28;;;;;;;7.53;6.45;;;12.50;90.40;;;;;;5054924;28;20671;-67
2022/03/28 01:30:58;;;;;;;8.10;7.30;;;12.50;90.50;;;;;;5054068;28;20228;-66
2022/03/28 01:33:34;;;;;;;12.35;7.75;;;12.50;90.50;;;;;;5054511;28;20708;-66
2022/03/28 01:36:04;;;;;;;7.45;6.60;;;12.50;90.60;;;;;;5054195;28;20220;-66
2022/03/28 01:38:32;;;;;;;8.52;7.60;;;12.50;90.80;;;;;;5054288;28;20290;-66
2022/03/28 01:41:02;;;;;;;13.18;7.60;;;12.40;90.80;;;;;;5053652;28;20224;-67
2022/03/28 01:43:32;;;;;;;7.90;7.10;;;12.40;90.80;;;;;;5054460;28;20228;-66
2022/03/28 01:46:02;;;;;;;8.30;6.20;;;12.40;90.90;;;;;;5040979;28;20563;-66
2022/03/28 01:48:30;;;;;;;7.53;6.72;;;12.40;91.00;;;;;;5054227;28;20299;-66
2022/03/28 01:50:58;;;;;;;12.70;9.25;;;12.40;91.00;;;;;;5053820;28;20228;-66
2022/03/28 01:53:30;;;;;;;13.55;8.13;;;12.30;91.10;;;;;;5054197;28;20624;-66
2022/03/28 01:55:59;;;;;;;8.82;7.65;;;12.30;91.10;;;;;;5053630;28;20228;-66
2022/03/28 01:58:28;;;;;;;9.95;7.95;;;12.30;91.30;;;;;;5053997;28;20485;-67
2022/03/28 02:00:58;;;;;;;8.20;7.30;;;12.30;91.40;;;;;;5053471;28;20239;-67
2022/03/28 02:03:28;;;;;;;10.93;8.52;;;12.20;91.50;;;;;;5053545;28;20232;-67
2022/03/28 02:05:56;;;;;;;11.80;7.90;;;12.20;91.60;;;;;;5053435;28;20221;-67
2022/03/28 02:08:25;;;;;;;8.68;7.63;;;12.20;91.60;;;;;;5053809;28;20232;-67
2022/03/28 02:10:57;;;;;;;8.52;7.03;;;12.20;91.70;;;;;;5053304;28;20679;-66
2022/03/28 02:13:26;;;;;;;7.95;7.13;;;12.20;92.10;;;;;;5053488;28;20221;-66
2022/03/28 02:15:56;;;;;;;10.32;7.05;;;12.20;91.70;;;;;;5053411;28;20225;-66
2022/03/28 02:18:27;;;;;;;8.40;7.07;;;12.10;91.70;;;;;;5053610;28;20255;-67
2022/03/28 02:20:55;;;;;;;9.07;6.68;;;12.10;91.70;;;;;;5052936;28;20258;-66
2022/03/28 02:23:25;;;;;;;11.13;7.53;;;12.10;91.70;;;;;;5053240;28;20303;-66
2022/03/28 02:25:55;;;;;;;8.50;7.60;;;12.10;91.60;;;;;;5053057;28;20701;-66
2022/03/28 02:28:25;;;;;;;9.98;6.45;;;12.10;91.60;;;;;;5053576;28;20693;-67
2022/03/28 02:30:54;;;;;;;7.90;7.10;;;12.00;91.60;;;;;;5052790;28;20229;-66
2022/03/28 02:33:21;;;;;;;8.75;6.57;;;12.00;91.70;;;;;;5040137;28;20259;-67
2022/03/28 02:35:48;;;;;;;7.82;6.47;;;12.00;91.70;;;;;;5053269;28;20231;-67
2022/03/28 02:38:16;;;;;;;13.45;7.47;;;12.00;91.80;;;;;;5052782;28;20231;-67
2022/03/28 02:40:43;;;;;;;17.60;12.50;;;11.90;91.70;;;;;;5053389;28;20229;-66
2022/03/28 02:43:12;;;;;;;11.27;6.70;;;11.90;91.80;;;;;;5052823;28;20712;-67
2022/03/28 02:45:40;;;;;;;10.23;7.25;;;11.90;91.80;;;;;;5053242;28;20244;-66
2022/03/28 02:48:08;;;;;;;10.55;7.40;;;11.90;91.70;;;;;;5052635;28;20843;-67
2022/03/28 02:50:36;;;;;;;9.32;6.35;;;11.90;91.80;;;;;;5052996;28;20235;-67
2022/03/28 02:53:04;;;;;;;12.68;6.60;;;11.80;91.80;;;;;;5039189;28;20248;-67
2022/03/28 02:55:32;;;;;;;9.10;6.82;;;11.90;91.90;;;;;;5053136;28;20777;-67
2022/03/28 02:57:59;;;;;;;9.95;7.47;;;11.80;91.80;;;;;;5039398;28;20248;-66
2022/03/28 03:00:28;;;;;;;7.95;6.30;;;11.80;91.80;;;;;;5052818;28;20616;-67
2022/03/28 03:02:55;;;;;;;9.27;6.85;;;11.80;91.70;;;;;;5050808;28;20247;-66
2022/03/28 03:05:23;;;;;;;10.05;7.40;;;11.80;91.70;;;;;;5052768;28;20232;-67
2022/03/28 03:07:52;;;;;;;9.73;6.72;;;11.70;91.70;;;;;;5052651;28;20228;-66
2022/03/28 03:10:19;;;;;;;9.20;6.95;;;11.70;91.70;;;;;;5052305;28;21094;-66
2022/03/28 03:12:47;;;;;;;9.98;6.97;;;11.70;91.70;;;;;;5052680;28;20244;-66
2022/03/28 03:15:15;;;;;;;7.63;6.90;;;11.70;91.80;;;;;;5052150;28;20224;-67
2022/03/28 03:17:44;;;;;;;7.57;6.35;;;11.70;91.80;;;;;;5052453;28;20224;-67
2022/03/28 03:20:12;;;;;;;14.18;8.85;;;11.70;91.80;;;;;;5051091;28;20260;-66
2022/03/28 03:22:42;;;;;;;9.15;6.40;;;11.60;91.80;;;;;;5051923;28;20220;-66
2022/03/28 03:25:12;;;;;;;9.43;6.97;;;11.60;91.90;;;;;;5052014;28;20256;-65
2022/03/28 03:27:42;;;;;;;8.32;6.07;;;11.60;91.90;;;;;;5052646;28;20227;-66
2022/03/28 03:30:15;;;;;;;8.88;7.25;;;11.60;92.00;;;;;;5052135;28;20228;-67
2022/03/28 03:32:44;;;;;;;13.27;8.52;;;11.60;92.00;;;;;;5052816;28;20734;-66
2022/03/28 03:35:12;;;;;;;7.93;6.32;;;11.60;92.00;;;;;;5052169;28;20224;-66
2022/03/28 03:37:40;;;;;;;6.47;5.75;;;11.50;92.10;;;;;;5052522;28;20240;-66
2022/03/28 03:40:08;;;;;;;9.35;6.47;;;11.50;92.20;;;;;;5052285;28;20243;-66
2022/03/28 03:42:35;;;;;;;7.20;6.28;;;11.50;92.20;;;;;;5052173;28;20220;-66
2022/03/28 03:45:04;;;;;;;7.88;6.57;;;11.50;92.40;;;;;;5052130;28;20224;-66
2022/03/28 03:47:30;;;;;;;7.70;5.57;;;11.50;92.40;;;;;;5052642;28;20231;-66
2022/03/28 03:49:59;;;;;;;9.13;7.57;;;11.60;92.50;;;;;;5052134;28;20224;-66
2022/03/28 03:52:25;;;;;;;9.82;7.50;;;11.50;92.50;;;;;;5052377;28;20289;-66
2022/03/28 03:54:52;;;;;;;7.82;6.50;;;11.50;92.50;;;;;;5052512;28;20220;-67
2022/03/28 03:57:19;;;;;;;11.10;6.22;;;11.50;92.40;;;;;;5052191;28;20648;-66
2022/03/28 03:59:46;;;;;;;14.25;9.63;;;11.50;92.50;;;;;;5052266;28;20220;-67
2022/03/28 04:02:13;;;;;;;10.57;8.68;;;11.40;92.40;;;;;;5052011;28;20341;-67
2022/03/28 04:04:40;;;;;;;10.55;7.38;;;11.40;92.50;;;;;;5052491;28;20220;-67
2022/03/28 04:07:08;;;;;;;10.52;6.28;;;11.40;92.50;;;;;;5051787;28;20229;-67
2022/03/28 04:09:35;;;;;;;9.05;6.40;;;11.40;92.60;;;;;;5052489;28;20225;-67
2022/03/28 04:12:01;;;;;;;10.45;6.45;;;11.40;92.60;;;;;;5051883;28;20228;-66
2022/03/28 04:14:28;;;;;;;7.95;6.25;;;11.30;92.60;;;;;;5052380;28;20225;-66
2022/03/28 04:16:55;;;;;;;10.00;7.30;;;11.30;92.70;;;;;;5052378;28;20228;-66
2022/03/28 04:19:22;;;;;;;9.38;6.45;;;11.20;92.70;;;;;;5051721;28;20227;-66
2022/03/28 04:21:49;;;;;;;13.18;7.95;;;11.20;92.80;;;;;;5051972;28;20228;-66
2022/03/28 04:24:18;;;;;;;8.85;7.20;;;11.20;92.90;;;;;;5051625;28;20244;-66
2022/03/28 04:26:46;;;;;;;10.18;7.35;;;11.20;93.00;;;;;;5052189;28;20231;-66
2022/03/28 04:29:14;;;;;;;9.25;7.00;;;11.20;93.10;;;;;;5051870;28;20248;-66
2022/03/28 04:31:41;;;;;;;11.18;7.00;;;11.10;93.20;;;;;;5051239;28;20750;-66
2022/03/28 04:34:09;;;;;;;12.55;8.48;;;11.10;93.30;;;;;;5051580;28;20232;-66
2022/03/28 04:36:37;;;;;;;13.93;8.60;;;11.10;93.40;;;;;;5052070;28;20244;-66
2022/03/28 04:39:11;;;;;;;8.80;6.65;;;11.10;93.60;;;;;;5051524;28;20232;-66
2022/03/28 04:41:39;;;;;;;9.90;8.02;;;11.00;93.60;;;;;;5051712;28;20755;-67
2022/03/28 04:44:07;;;;;;;11.27;7.10;;;11.00;93.70;;;;;;5051644;28;20260;-66
2022/03/28 04:46:33;;;;;;;13.90;8.00;;;11.00;93.80;;;;;;5052232;28;20294;-66
2022/03/28 04:49:01;;;;;;;8.90;7.60;;;11.00;93.90;;;;;;5051923;28;20212;-66
2022/03/28 04:51:27;;;;;;;10.25;8.70;;;11.00;94.00;;;;;;5051710;28;20300;-66
2022/03/28 04:53:54;;;;;;;11.45;9.15;;;10.90;94.00;;;;;;5052114;28;20725;-66
2022/03/28 04:56:21;;;;;;;14.18;8.55;;;10.90;94.20;;;;;;5054928;28;20225;-66
2022/03/28 04:58:49;;;;;;;13.48;8.60;;;10.80;94.20;;;;;;5055447;28;20239;-69
2022/03/28 05:01:16;;;;;;;10.75;8.77;;;10.80;94.40;;;;;;5054997;28;20232;-66
2022/03/28 05:03:43;;;;;;;17.13;9.18;;;10.80;94.60;;;;;;5055455;28;20308;-66
2022/03/28 05:06:10;;;;;;;11.27;8.80;;;10.80;94.70;;;;;;5055003;28;20225;-65
2022/03/28 05:08:37;;;;;;;10.80;7.88;;;10.80;94.90;;;;;;5055377;28;20566;-67
2022/03/28 05:11:04;;;;;;;10.98;8.52;;;10.70;95.00;;;;;;5055188;28;20225;-67
2022/03/28 05:13:31;;;;;;;10.77;8.35;;;10.70;95.20;;;;;;5055006;28;20753;-66
2022/03/28 05:15:59;;;;;;;10.93;7.80;;;10.70;95.30;;;;;;5055015;28;20224;-67
2022/03/28 05:18:26;;;;;;;11.75;8.80;;;10.70;95.50;;;;;;5054580;28;20690;-65
2022/03/28 05:20:53;;;;;;;13.00;9.60;;;10.60;95.50;;;;;;5055163;28;20225;-67
2022/03/28 05:23:19;;;;;;;10.73;8.20;;;10.60;95.60;;;;;;5054414;28;20232;-67
2022/03/28 05:25:46;;;;;;;11.25;8.50;;;10.60;95.70;;;;;;5054894;28;20232;-67
2022/03/28 05:28:13;;;;;;;11.82;7.43;;;10.60;95.80;;;;;;5045505;28;20233;-67
2022/03/28 05:30:40;;;;;;;14.13;8.85;;;10.60;96.00;;;;;;5034899;28;20232;-67
2022/03/28 05:33:14;;;;;;;13.90;9.77;;;10.60;96.00;;;;;;5034901;28;20221;-67
2022/03/28 05:35:43;;;;;;;10.23;8.35;;;10.60;96.10;;;;;;5033730;28;20217;-66
2022/03/28 05:38:10;;;;;;;11.45;8.40;;;10.50;96.10;;;;;;5034355;28;20234;-67
2022/03/28 05:40:38;;;;;;;13.07;8.93;;;10.50;96.30;;;;;;5034137;28;20233;-65
2022/03/28 05:43:05;;;;;;;14.25;7.55;;;10.50;96.40;;;;;;5034920;28;20233;-66
2022/03/28 05:45:32;;;;;;;7.57;6.82;;;10.50;96.50;;;;;;5034278;28;20264;-66
2022/03/28 05:47:59;;;;;;;10.30;8.55;;;10.50;96.50;;;;;;5034511;28;20279;-67
2022/03/28 05:50:27;;;;;;;10.15;8.25;;;10.40;96.60;;;;;;5034165;28;20288;-66
2022/03/28 05:52:54;;;;;;;10.95;9.13;;;10.50;96.80;;;;;;5034342;28;20696;-66
2022/03/28 05:55:21;;;;;;;11.88;7.85;;;10.50;96.90;;;;;;5034255;28;20225;-66
2022/03/28 05:57:48;;;;;;;11.07;7.88;;;10.50;96.90;;;;;;5034405;28;20690;-67
2022/03/28 06:00:16;;;;;;;14.85;8.43;;;10.50;97.00;;;;;;5033999;28;20241;-67
2022/03/28 06:02:43;;;;;;;9.68;7.68;;;10.40;97.10;;;;;;5033966;28;20232;-66
2022/03/28 06:05:11;;;;;;;9.75;7.90;;;10.40;97.20;;;;;;5034003;28;20228;-67
2022/03/28 06:07:39;;;;;;;13.50;8.45;;;10.50;97.20;;;;;;5033774;28;20229;-66
2022/03/28 06:10:07;;;;;;;11.82;8.15;;;10.40;97.30;;;;;;5034100;28;20226;-67
2022/03/28 06:12:34;;;;;;;11.73;8.63;;;10.40;97.40;;;;;;5033704;28;20238;-66
2022/03/28 06:15:01;;;;;;;11.88;8.95;;;10.40;97.50;;;;;;5034037;28;20226;-67
2022/03/28 06:17:28;;;;;;;14.60;10.35;;;10.40;97.60;;;;;;5033692;28;20279;-67
2022/03/28 06:19:55;;;;;;;12.50;8.48;;;10.40;97.70;;;;;;5034134;28;20276;-67
2022/03/28 06:22:22;;;;;;;8.63;7.82;;;10.40;97.70;;;;;;5033358;28;20240;-66
2022/03/28 06:24:50;;;;;;;16.38;10.35;;;10.50;97.80;;;;;;5033835;28;20232;-67
2022/03/28 06:27:17;;;;;;;10.68;9.23;;;10.50;97.90;;;;;;5033780;28;20222;-67
2022/03/28 06:29:43;;;;;;;16.80;9.35;;;10.40;98.00;;;;;;5033270;28;20232;-67
2022/03/28 06:32:10;;;;;;;16.60;10.75;;;10.40;98.10;;;;;;5033792;28;20225;-67
2022/03/28 06:34:37;;;;;;;13.52;9.50;;;10.40;98.20;;;;;;5033351;28;20402;-66
2022/03/28 06:37:04;;;;;;;9.65;8.13;;;10.50;98.30;;;;;;5033560;28;20217;-67
2022/03/28 06:39:31;;;;;;;13.55;10.60;;;10.50;98.30;;;;;;5033164;28;20372;-66
2022/03/28 06:41:59;;;;;;;13.10;9.43;;;10.50;98.40;;;;;;5033547;28;20222;-67
2022/03/28 06:44:26;;;;;;;21.08;10.55;;;10.50;98.40;;;;;;5033284;28;20217;-66
2022/03/28 06:46:53;;;;;;;12.32;9.40;;;10.50;98.40;;;;;;5033620;28;20229;-66
2022/03/28 06:49:20;;;;;;;13.13;10.88;;;10.60;98.50;;;;;;5033431;28;20233;-66
2022/03/28 06:51:47;;;;;;;15.20;10.88;;;10.60;98.60;;;;;;5033014;28;20217;-66
2022/03/28 06:54:14;;;;;;;16.48;10.85;;;10.60;98.60;;;;;;5033271;28;20676;-67
2022/03/28 06:56:41;;;;;;;18.95;9.82;;;10.60;98.60;;;;;;5032893;28;20225;-68
2022/03/28 06:59:10;;;;;;;13.63;10.25;;;10.60;98.60;;;;;;5033222;28;20541;-67
2022/03/28 07:01:37;;;;;;;13.70;10.10;;;10.70;98.60;;;;;;5032651;28;20594;-66
2022/03/28 07:04:04;;;;;;;16.77;11.90;;;10.60;98.60;;;;;;5033178;28;20225;-66
2022/03/28 07:06:31;;;;;;;14.48;11.73;;;10.70;98.60;;;;;;5032680;28;20233;-66
2022/03/28 07:08:58;;;;;;;13.32;9.80;;;10.70;98.60;;;;;;5033104;28;20213;-66
2022/03/28 07:11:26;;;;;;;14.65;10.45;;;10.80;98.60;;;;;;5032776;28;20237;-67
2022/03/28 07:13:52;;;;;;;12.63;9.75;;;10.80;98.50;;;;;;5033169;28;20291;-67
2022/03/28 07:16:21;;;;;;;13.07;8.90;;;10.90;98.60;;;;;;5032603;28;20232;-66
2022/03/28 07:18:47;;;;;;;11.65;9.40;;;10.90;98.60;;;;;;5032182;28;20221;-67
2022/03/28 07:21:14;;;;;;;11.32;8.90;;;10.90;98.50;;;;;;5032794;28;20240;-67
2022/03/28 07:23:42;;;;;;;10.95;8.43;;;11.00;98.50;;;;;;5032156;28;20236;-67
2022/03/28 07:26:08;;;;;;;10.80;9.45;;;11.00;98.40;;;;;;5032822;28;20225;-67
2022/03/28 07:28:39;;;;;;;14.73;10.75;;;11.10;98.30;;;;;;5032507;28;20221;-67
2022/03/28 07:31:08;;;;;;;9.75;8.60;;;11.20;98.30;;;;;;5032758;28;20633;-67
2022/03/28 07:33:37;;;;;;;10.20;9.10;;;11.20;98.20;;;;;;5032245;28;20304;-67
2022/03/28 07:36:04;;;;;;;10.57;9.23;;;11.30;98.10;;;;;;5032853;28;20221;-67
2022/03/28 07:38:31;;;;;;;14.27;8.85;;;11.30;98.10;;;;;;5032244;28;20288;-66
2022/03/28 07:40:58;;;;;;;9.93;8.63;;;11.40;97.90;;;;;;5032515;28;20603;-66
2022/03/28 07:43:25;;;;;;;12.18;8.80;;;11.50;97.80;;;;;;5032897;28;20308;-67
2022/03/28 07:45:54;;;;;;;12.70;8.93;;;11.50;97.60;;;;;;5032414;28;20221;-66
2022/03/28 07:48:21;;;;;;;13.57;8.85;;;11.60;97.50;;;;;;5032727;28;20221;-67
2022/03/28 07:50:50;;;;;;;9.90;8.57;;;11.70;97.40;;;;;;5032256;28;20268;-66
2022/03/28 07:53:17;;;;;;;12.07;8.77;;;11.70;97.10;;;;;;5032497;28;20224;-66
2022/03/28 07:55:45;;;;;;;17.45;8.60;;;11.80;96.90;;;;;;5032180;28;20225;-67
2022/03/28 07:58:15;;;;;;;13.52;9.20;;;11.80;96.80;;;;;;5032660;28;20225;-66
2022/03/28 08:00:42;;;;;;;20.13;13.00;;;11.90;96.70;;;;;;5031963;28;20225;-67
2022/03/28 08:03:09;;;;;;;13.30;10.07;;;11.90;96.40;;;;;;5032670;28;20225;-67
2022/03/28 08:05:35;;;;;;;18.52;11.55;;;12.00;96.40;;;;;;5032155;28;20578;-66
2022/03/28 08:08:04;;;;;;;17.33;12.57;;;12.00;96.30;;;;;;5032444;28;20225;-66
2022/03/28 08:10:31;;;;;;;13.98;10.65;;;12.10;96.30;;;;;;5032193;28;20237;-66
2022/03/28 08:12:58;;;;;;;16.00;12.48;;;12.20;96.30;;;;;;5032337;28;20690;-67
2022/03/28 08:15:25;;;;;;;15.45;10.25;;;12.20;96.10;;;;;;5032365;28;20291;-66
2022/03/28 08:17:52;;;;;;;15.85;11.15;;;12.30;96.00;;;;;;5032019;28;20241;-67
2022/03/28 08:20:19;;;;;;;11.07;9.00;;;12.40;96.30;;;;;;5032169;28;20243;-67
2022/03/28 08:22:49;;;;;;;10.57;8.50;;;12.40;95.90;;;;;;5031804;28;20687;-68
2022/03/28 08:25:17;;;;;;;16.15;10.30;;;12.50;95.90;;;;;;5032267;28;20225;-67
2022/03/28 08:27:44;;;;;;;12.23;9.10;;;12.60;95.80;;;;;;5031857;28;20248;-66
2022/03/28 08:30:12;;;;;;;12.15;10.95;;;12.60;95.70;;;;;;5036039;28;20229;-67
2022/03/28 08:32:40;;;;;;;10.77;9.55;;;12.70;95.60;;;;;;5035635;28;20279;-67
2022/03/28 08:35:07;;;;;;;13.23;9.30;;;12.80;95.50;;;;;;5035977;28;20809;-67
2022/03/28 08:37:34;;;;;;;16.63;9.05;;;12.90;95.30;;;;;;5035326;28;20229;-67
2022/03/28 08:40:01;;;;;;;9.65;8.20;;;12.90;95.20;;;;;;5036017;28;20567;-67
2022/03/28 08:42:29;;;;;;;9.32;8.15;;;13.00;95.10;;;;;;5035767;28;20225;-66
2022/03/28 08:44:56;;;;;;;10.32;7.57;;;13.10;94.90;;;;;;5035461;28;20217;-66
2022/03/28 08:47:24;;;;;;;11.10;8.45;;;13.10;94.90;;;;;;5035754;28;20225;-66
2022/03/28 08:49:53;;;;;;;10.40;7.68;;;13.20;94.60;;;;;;5035123;28;20221;-66
2022/03/28 08:52:22;;;;;;;10.10;7.85;;;13.20;94.40;;;;;;5035467;28;20229;-66
2022/03/28 08:54:50;;;;;;;12.02;8.65;;;13.30;94.70;;;;;;5035311;28;20304;-67
2022/03/28 08:57:17;;;;;;;9.10;7.80;;;13.40;94.30;;;;;;5035545;28;20221;-67
2022/03/28 08:59:45;;;;;;;10.85;9.00;;;13.40;94.10;;;;;;5035006;28;20584;-67
2022/03/28 09:02:30;;;;;;;10.57;6.93;;;13.50;94.00;;;;;;5035531;28;20225;-67
2022/03/28 09:04:57;;;;;;;8.63;6.68;;;13.50;93.90;;;;;;5034449;28;20709;-66
2022/03/28 09:07:26;;;;;;;7.72;6.88;;;13.60;93.80;;;;;;5035285;28;20225;-67
2022/03/28 09:09:57;;;;;;;16.02;10.10;;;13.70;93.80;;;;;;5034907;28;20252;-67
2022/03/28 09:12:24;;;;;;;10.52;8.27;;;13.70;93.50;;;;;;5035340;28;20233;-67
2022/03/28 09:14:57;;;;;;;12.75;10.25;;;13.80;93.40;;;;;;5034798;28;20227;-67
2022/03/28 09:17:24;;;;;;;9.95;8.48;;;13.90;93.30;;;;;;5035132;28;20253;-66
2022/03/28 09:19:54;;;;;;;14.65;9.05;;;13.90;93.20;;;;;;5034759;28;20225;-67
2022/03/28 09:22:23;;;;;;;11.70;7.95;;;14.00;93.20;;;;;;5034908;28;20549;-67
2022/03/28 09:24:51;;;;;;;9.60;7.50;;;14.10;93.10;;;;;;5034444;28;20324;-66
2022/03/28 09:27:20;;;;;;;10.70;8.40;;;14.10;92.90;;;;;;5035034;28;20692;-66
2022/03/28 09:30:03;;;;;;;8.73;7.30;;;14.10;92.60;;;;;;5034466;28;20471;-66
2022/03/28 09:32:31;;;;;;;10.43;7.45;;;14.20;92.50;;;;;;5034838;28;20480;-66
2022/03/28 09:35:10;;;;;;;7.63;6.35;;;14.30;92.40;;;;;;5034391;28;20221;-66
2022/03/28 09:37:56;;;;;;;12.67;8.97;;;14.40;92.20;;;;;;5034259;28;20616;-66
2022/03/28 09:40:25;;;;;;;11.70;10.35;;;14.40;92.00;;;;;;5034061;28;20468;-67
2022/03/28 09:42:52;;;;;;;9.73;6.83;;;14.40;91.80;;;;;;5034375;28;20236;-67
2022/03/28 09:45:21;;;;;;;7.77;6.97;;;14.50;91.70;;;;;;5034739;28;20467;-66
2022/03/28 09:47:59;;;;;;;9.97;8.10;;;14.60;91.60;;;;;;5034193;28;20472;-66
2022/03/28 09:50:35;;;;;;;9.18;7.05;;;14.60;91.20;;;;;;5034641;28;20479;-66
2022/03/28 09:53:20;;;;;;;10.03;8.47;;;14.70;91.20;;;;;;5034581;28;20243;-67
2022/03/28 09:55:49;;;;;;;8.83;7.20;;;14.60;90.90;;;;;;5034133;28;20460;-66
2022/03/28 09:58:37;;;;;;;8.67;7.13;;;14.70;90.80;;;;;;5034540;28;20464;-66
2022/03/28 10:01:08;;;;;;;8.73;7.10;;;14.70;90.60;;;;;;5034036;28;20468;-66
2022/03/28 10:03:37;;;;;;;9.87;7.83;;;14.80;90.40;;;;;;5034351;28;20808;-66
2022/03/28 10:06:06;;;;;;;9.33;7.60;;;14.80;90.30;;;;;;5034066;28;20468;-66
2022/03/28 10:08:34;;;;;;;9.00;6.90;;;14.80;90.30;;;;;;5034212;28;20595;-67
2022/03/28 10:11:02;;;;;;;10.00;7.60;;;14.90;90.10;;;;;;5033645;28;20556;-67
2022/03/28 10:13:30;;;;;;;10.30;6.93;;;14.90;90.10;;;;;;5034365;28;20483;-67
2022/03/28 10:15:57;;;;;;;7.83;7.07;;;15.00;90.00;;;;;;5033658;28;20468;-67
2022/03/28 10:18:28;;;;;;;6.53;5.73;;;15.10;90.00;;;;;;5033949;28;20476;-66
2022/03/28 10:20:57;;;;;;;8.07;6.57;;;15.10;89.40;;;;;;5033371;28;20530;-67
2022/03/28 10:23:27;;;;;;;7.73;6.80;;;15.20;89.00;;;;;;5033761;28;20464;-67
2022/03/28 10:25:57;;;;;;;12.97;6.90;;;15.20;88.30;;;;;;5033305;28;20476;-67
2022/03/28 10:28:24;;;;;;;7.37;5.73;;;15.30;88.20;;;;;;5033984;28;20488;-66
2022/03/28 10:31:09;;;;;;;5.93;5.40;;;15.30;87.60;;;;;;5033243;28;20547;-67
2022/03/28 10:33:46;;;;;;;8.10;6.23;;;15.40;86.90;;;;;;5033802;28;20471;-66
2022/03/28 10:36:27;;;;;;;7.40;5.43;;;15.40;86.30;;;;;;5033329;28;20462;-67
2022/03/28 10:38:57;;;;;;;8.53;5.90;;;15.50;85.00;;;;;;5033289;28;20464;-67
2022/03/28 10:41:26;;;;;;;9.60;7.00;;;15.50;84.90;;;;;;5033556;28;20464;-68
2022/03/28 10:44:02;;;;;;;10.17;7.23;;;15.50;84.30;;;;;;5033147;28;20468;-67
2022/03/28 10:46:35;;;;;;;10.03;8.40;;;15.50;83.80;;;;;;5033609;28;20474;-68
2022/03/28 10:49:06;;;;;;;9.33;8.40;;;15.60;83.90;;;;;;5033096;28;20469;-67
2022/03/28 10:51:32;;;;;;;8.87;7.97;;;15.60;84.10;;;;;;5032719;28;20797;-71
2022/03/28 10:54:01;;;;;;;7.80;7.00;;;15.70;84.20;;;;;;5032770;28;20815;-67
2022/03/28 10:56:31;;;;;;;7.87;6.07;;;15.70;83.90;;;;;;5033441;28;20806;-67
2022/03/28 10:58:59;;;;;;;7.70;5.63;;;15.80;83.60;;;;;;5032991;28;20463;-67
2022/03/28 11:01:29;;;;;;;12.73;7.73;;;15.90;83.70;;;;;;5033235;28;20484;-67
2022/03/28 11:04:00;;;;;;;7.33;5.20;;;15.90;83.60;;;;;;5032736;28;20475;-67
2022/03/28 11:07:00;;;;;;;7.00;6.13;;;15.90;83.30;;;;;;5033365;28;20469;-67
2022/03/28 11:09:50;;;;;;;6.13;5.53;;;15.90;82.00;;;;;;5033502;28;20457;-67
2022/03/28 11:12:21;;;;;;;8.30;7.10;;;15.80;81.30;;;;;;5028748;28;20476;-67
2022/03/28 11:14:57;;;;;;;7.67;5.97;;;15.80;80.60;;;;;;5033164;28;20480;-67
2022/03/28 11:17:26;;;;;;;7.27;6.37;;;15.90;80.90;;;;;;5032645;28;20958;-67
2022/03/28 11:19:54;;;;;;;8.27;6.90;;;15.90;81.00;;;;;;5032704;28;20468;-66
2022/03/28 11:22:47;;;;;;;7.37;6.37;;;16.00;80.90;;;;;;5032346;28;20488;-66
2022/03/28 11:25:39;;;;;;;6.90;5.43;;;16.00;80.80;;;;;;5032332;28;20567;-67
2022/03/28 11:28:27;;;;;;;12.77;6.33;;;16.00;80.40;;;;;;5023083;28;20468;-67
2022/03/28 11:30:59;;;;;;;10.07;6.60;;;16.10;80.50;;;;;;5032660;28;20478;-66
2022/03/28 11:33:32;;;;;;;11.83;7.23;;;16.10;80.60;;;;;;5032868;28;20791;-67
2022/03/28 11:36:01;;;;;;;10.83;8.90;;;16.10;80.80;;;;;;5032278;28;20457;-66
2022/03/28 11:38:32;;;;;;;7.23;6.53;;;16.10;80.20;;;;;;5032648;28;20475;-67
2022/03/28 11:41:01;;;;;;;7.40;6.67;;;16.10;79.80;;;;;;5032125;28;20472;-67
2022/03/28 11:43:36;;;;;;;8.43;5.97;;;16.20;79.90;;;;;;5032811;28;20553;-67
2022/03/28 11:46:10;;;;;;;6.40;5.80;;;16.20;79.30;;;;;;5032296;28;20484;-66
2022/03/28 11:48:37;;;;;;;5.80;5.30;;;16.30;79.00;;;;;;5032715;28;20525;-66
2022/03/28 11:51:16;;;;;;;6.60;5.90;;;16.30;78.90;;;;;;5031961;28;20486;-67
2022/03/28 11:53:44;;;;;;;6.67;5.97;;;16.30;79.10;;;;;;5032468;28;20545;-67
2022/03/28 11:56:11;;;;;;;6.20;5.30;;;16.30;79.10;;;;;;5032167;28;20472;-67
2022/03/28 11:58:38;;;;;;;5.17;4.77;;;16.40;79.10;;;;;;5032450;28;20475;-66
2022/03/28 12:01:09;;;;;;;9.47;8.57;;;16.40;79.10;;;;;;5031951;28;20469;-66
2022/03/28 12:03:38;;;;;;;8.63;7.83;;;16.50;79.00;;;;;;5034106;28;20463;-67
2022/03/28 12:06:06;;;;;;;8.57;7.77;;;16.50;77.60;;;;;;5035974;28;20533;-67
2022/03/28 12:08:33;;;;;;;9.40;7.17;;;16.50;76.30;;;;;;5036430;28;20468;-68
2022/03/28 12:11:01;;;;;;;7.80;7.00;;;16.50;76.50;;;;;;5035922;28;20847;-67
2022/03/28 12:13:28;;;;;;;8.93;7.40;;;16.50;76.70;;;;;;5036446;28;20468;-68
2022/03/28 12:15:57;;;;;;;8.67;7.83;;;16.60;77.10;;;;;;5036238;28;21105;-67
2022/03/28 12:18:29;;;;;;;6.90;6.20;;;16.60;77.50;;;;;;5036114;28;20464;-68
2022/03/28 12:20:56;;;;;;;14.00;7.00;;;16.60;76.80;;;;;;5036037;28;20475;-66
2022/03/28 12:23:26;;;;;;;8.50;6.57;;;16.60;76.90;;;;;;5035786;28;20538;-70
2022/03/28 12:25:55;;;;;;;6.13;5.53;;;16.70;77.00;;;;;;5036068;28;20484;-67
2022/03/28 12:28:29;;;;;;;9.47;6.07;;;16.70;77.30;;;;;;5035756;28;20497;-67
2022/03/28 12:30:57;;;;;;;5.80;5.20;;;16.70;77.30;;;;;;5036003;28;20469;-67
2022/03/28 12:33:27;;;;;;;6.63;5.80;;;16.70;77.10;;;;;;5035577;28;20473;-68
2022/03/28 12:35:57;;;;;;;4.93;4.53;;;16.70;77.10;;;;;;5036103;28;20864;-67
2022/03/28 12:38:27;;;;;;;5.30;4.80;;;16.80;77.10;;;;;;5035439;28;20487;-67
2022/03/28 12:40:56;;;;;;;6.27;5.67;;;16.80;77.30;;;;;;5035682;28;20472;-67
2022/03/28 12:43:28;;;;;;;11.23;7.00;;;16.80;77.50;;;;;;5035467;28;20493;-66
2022/03/28 12:45:55;;;;;;;6.67;5.93;;;16.80;77.90;;;;;;5035880;28;20463;-67
2022/03/28 12:48:23;;;;;;;8.20;6.67;;;16.80;78.30;;;;;;5035452;28;20456;-67
2022/03/28 12:50:56;;;;;;;6.70;5.90;;;16.80;78.60;;;;;;5035788;28;20470;-67